sensor_id;sensor_type;location;lat;lon;timestamp;pressure;altitude;pressure_sealevel;temperature
24639;BMP180;1641;51.306;12.384;2023-04-24T00:02:00;98869.00;;;15.70
24639;BMP180;1641;51.306;12.384;2023-04-24T00:04:26;98865.00;;;15.60
24639;BMP180;1641;51.306;12.384;2023-04-24T00:06:51;98862.00;;;15.70
24639;BMP180;1641;51.306;12.384;2023-04-24T00:09:19;98855.00;;;15.60
24639;BMP180;1641;51.306;12.384;2023-04-24T00:11:44;98857.00;;;15.70
24639;BMP180;1641;51.306;12.384;2023-04-24T00:14:10;98867.00;;;15.80
24639;BMP180;1641;51.306;12.384;2023-04-24T00:16:35;98848.00;;;15.70
24639;BMP180;1641;51.306;12.384;2023-04-24T00:19:00;98872.00;;;15.40
24639;BMP180;1641;51.306;12.384;2023-04-24T00:21:25;98876.00;;;15.70
24639;BMP180;1641;51.306;12.384;2023-04-24T00:23:51;98875.00;;;15.50
24639;BMP180;1641;51.306;12.384;2023-04-24T00:26:17;98838.00;;;15.40
24639;BMP180;1641;51.306;12.384;2023-04-24T00:28:42;98869.00;;;15.40
24639;BMP180;1641;51.306;12.384;2023-04-24T00:31:08;98869.00;;;15.30
24639;BMP180;1641;51.306;12.384;2023-04-24T00:33:33;98851.00;;;15.40
24639;BMP180;1641;51.306;12.384;2023-04-24T00:35:58;98873.00;;;15.30
24639;BMP180;1641;51.306;12.384;2023-04-24T00:38:24;98867.00;;;15.20
24639;BMP180;1641;51.306;12.384;2023-04-24T00:40:49;98872.00;;;15.40
24639;BMP180;1641;51.306;12.384;2023-04-24T00:43:19;98855.00;;;15.00
24639;BMP180;1641;51.306;12.384;2023-04-24T00:45:44;98848.00;;;15.10
24639;BMP180;1641;51.306;12.384;2023-04-24T00:48:11;98869.00;;;15.00
24639;BMP180;1641;51.306;12.384;2023-04-24T00:50:37;98857.00;;;14.90
24639;BMP180;1641;51.306;12.384;2023-04-24T00:53:03;98878.00;;;14.80
24639;BMP180;1641;51.306;12.384;2023-04-24T00:55:28;98855.00;;;14.90
24639;BMP180;1641;51.306;12.384;2023-04-24T00:57:54;98876.00;;;14.90
24639;BMP180;1641;51.306;12.384;2023-04-24T01:00:19;98884.00;;;15.00
24639;BMP180;1641;51.306;12.384;2023-04-24T01:02:45;98877.00;;;14.90
24639;BMP180;1641;51.306;12.384;2023-04-24T01:05:12;98878.00;;;14.70
24639;BMP180;1641;51.306;12.384;2023-04-24T01:07:39;98877.00;;;14.50
24639;BMP180;1641;51.306;12.384;2023-04-24T01:10:06;98875.00;;;14.50
24639;BMP180;1641;51.306;12.384;2023-04-24T01:12:32;98862.00;;;14.70
24639;BMP180;1641;51.306;12.384;2023-04-24T01:14:58;98851.00;;;14.50
24639;BMP180;1641;51.306;12.384;2023-04-24T01:17:23;98830.00;;;14.40
24639;BMP180;1641;51.306;12.384;2023-04-24T01:19:48;98870.00;;;14.40
24639;BMP180;1641;51.306;12.384;2023-04-24T01:22:14;98786.00;;;14.40
24639;BMP180;1641;51.306;12.384;2023-04-24T01:24:41;98830.00;;;14.70
24639;BMP180;1641;51.306;12.384;2023-04-24T01:27:07;98873.00;;;14.60
24639;BMP180;1641;51.306;12.384;2023-04-24T01:29:33;98867.00;;;14.80
24639;BMP180;1641;51.306;12.384;2023-04-24T01:31:59;98878.00;;;14.70
24639;BMP180;1641;51.306;12.384;2023-04-24T01:34:25;98837.00;;;14.50
24639;BMP180;1641;51.306;12.384;2023-04-24T01:36:50;98864.00;;;14.40
24639;BMP180;1641;51.306;12.384;2023-04-24T01:39:16;98853.00;;;14.50
24639;BMP180;1641;51.306;12.384;2023-04-24T01:41:41;98865.00;;;14.80
24639;BMP180;1641;51.306;12.384;2023-04-24T01:44:07;98847.00;;;14.80
24639;BMP180;1641;51.306;12.384;2023-04-24T01:46:32;98846.00;;;14.70
24639;BMP180;1641;51.306;12.384;2023-04-24T01:49:00;98871.00;;;14.90
24639;BMP180;1641;51.306;12.384;2023-04-24T01:51:25;98867.00;;;14.70
24639;BMP180;1641;51.306;12.384;2023-04-24T01:53:50;98867.00;;;14.60
24639;BMP180;1641;51.306;12.384;2023-04-24T01:56:16;98862.00;;;14.40
24639;BMP180;1641;51.306;12.384;2023-04-24T01:58:42;98868.00;;;14.20
24639;BMP180;1641;51.306;12.384;2023-04-24T02:01:08;98877.00;;;14.40
24639;BMP180;1641;51.306;12.384;2023-04-24T02:03:33;98851.00;;;14.30
24639;BMP180;1641;51.306;12.384;2023-04-24T02:05:58;98876.00;;;14.10
24639;BMP180;1641;51.306;12.384;2023-04-24T02:08:23;98858.00;;;14.20
24639;BMP180;1641;51.306;12.384;2023-04-24T02:10:49;98847.00;;;14.10
24639;BMP180;1641;51.306;12.384;2023-04-24T02:13:14;98872.00;;;14.30
24639;BMP180;1641;51.306;12.384;2023-04-24T02:15:39;98863.00;;;14.50
24639;BMP180;1641;51.306;12.384;2023-04-24T02:18:05;98866.00;;;14.50
24639;BMP180;1641;51.306;12.384;2023-04-24T02:20:32;98860.00;;;14.30
24639;BMP180;1641;51.306;12.384;2023-04-24T02:22:59;98844.00;;;14.20
24639;BMP180;1641;51.306;12.384;2023-04-24T02:25:24;98871.00;;;14.10
24639;BMP180;1641;51.306;12.384;2023-04-24T02:27:49;98869.00;;;14.30
24639;BMP180;1641;51.306;12.384;2023-04-24T02:30:15;98827.00;;;14.10
24639;BMP180;1641;51.306;12.384;2023-04-24T02:32:40;98860.00;;;14.10
24639;BMP180;1641;51.306;12.384;2023-04-24T02:35:05;98858.00;;;14.00
24639;BMP180;1641;51.306;12.384;2023-04-24T02:37:31;98840.00;;;14.00
24639;BMP180;1641;51.306;12.384;2023-04-24T02:39:56;98850.00;;;14.10
24639;BMP180;1641;51.306;12.384;2023-04-24T02:42:21;98847.00;;;14.00
24639;BMP180;1641;51.306;12.384;2023-04-24T02:44:47;98846.00;;;13.90
24639;BMP180;1641;51.306;12.384;2023-04-24T02:47:12;98848.00;;;13.70
24639;BMP180;1641;51.306;12.384;2023-04-24T02:49:37;98831.00;;;14.10
24639;BMP180;1641;51.306;12.384;2023-04-24T02:52:02;98836.00;;;14.10
24639;BMP180;1641;51.306;12.384;2023-04-24T02:54:28;98847.00;;;14.00
24639;BMP180;1641;51.306;12.384;2023-04-24T02:56:53;98842.00;;;13.90
24639;BMP180;1641;51.306;12.384;2023-04-24T02:59:18;98843.00;;;13.80
24639;BMP180;1641;51.306;12.384;2023-04-24T03:01:43;98845.00;;;13.60
24639;BMP180;1641;51.306;12.384;2023-04-24T03:04:09;98845.00;;;13.70
24639;BMP180;1641;51.306;12.384;2023-04-24T03:06:35;98845.00;;;13.50
24639;BMP180;1641;51.306;12.384;2023-04-24T03:09:01;98826.00;;;13.60
24639;BMP180;1641;51.306;12.384;2023-04-24T03:11:26;98843.00;;;13.60
24639;BMP180;1641;51.306;12.384;2023-04-24T03:13:51;98845.00;;;13.50
24639;BMP180;1641;51.306;12.384;2023-04-24T03:16:16;98839.00;;;13.70
24639;BMP180;1641;51.306;12.384;2023-04-24T03:18:42;98838.00;;;13.40
24639;BMP180;1641;51.306;12.384;2023-04-24T03:21:07;98832.00;;;13.60
24639;BMP180;1641;51.306;12.384;2023-04-24T03:23:32;98834.00;;;13.60
24639;BMP180;1641;51.306;12.384;2023-04-24T03:25:57;98833.00;;;13.30
24639;BMP180;1641;51.306;12.384;2023-04-24T03:28:23;98831.00;;;13.20
24639;BMP180;1641;51.306;12.384;2023-04-24T03:30:48;98805.00;;;13.40
24639;BMP180;1641;51.306;12.384;2023-04-24T03:33:13;98839.00;;;13.20
24639;BMP180;1641;51.306;12.384;2023-04-24T03:35:38;98839.00;;;13.70
24639;BMP180;1641;51.306;12.384;2023-04-24T03:38:04;98835.00;;;13.70
24639;BMP180;1641;51.306;12.384;2023-04-24T03:40:29;98834.00;;;13.80
24639;BMP180;1641;51.306;12.384;2023-04-24T03:42:55;98843.00;;;13.90
24639;BMP180;1641;51.306;12.384;2023-04-24T03:45:20;98835.00;;;13.90
24639;BMP180;1641;51.306;12.384;2023-04-24T03:47:45;98836.00;;;14.00
24639;BMP180;1641;51.306;12.384;2023-04-24T03:50:12;98846.00;;;13.90
24639;BMP180;1641;51.306;12.384;2023-04-24T03:52:37;98830.00;;;13.70
24639;BMP180;1641;51.306;12.384;2023-04-24T03:55:02;98849.00;;;13.50
24639;BMP180;1641;51.306;12.384;2023-04-24T03:57:28;98820.00;;;13.60
24639;BMP180;1641;51.306;12.384;2023-04-24T03:59:53;98815.00;;;13.60
24639;BMP180;1641;51.306;12.384;2023-04-24T04:02:18;98831.00;;;13.80
24639;BMP180;1641;51.306;12.384;2023-04-24T04:04:44;98793.00;;;13.90
24639;BMP180;1641;51.306;12.384;2023-04-24T04:07:09;98785.00;;;14.10
24639;BMP180;1641;51.306;12.384;2023-04-24T04:09:34;98834.00;;;14.00
24639;BMP180;1641;51.306;12.384;2023-04-24T04:12:00;98820.00;;;14.00
24639;BMP180;1641;51.306;12.384;2023-04-24T04:14:26;98824.00;;;14.00
24639;BMP180;1641;51.306;12.384;2023-04-24T04:16:51;98799.00;;;13.80
24639;BMP180;1641;51.306;12.384;2023-04-24T04:19:17;98799.00;;;13.70
24639;BMP180;1641;51.306;12.384;2023-04-24T04:21:46;98851.00;;;13.70
24639;BMP180;1641;51.306;12.384;2023-04-24T04:24:18;98823.00;;;14.20
24639;BMP180;1641;51.306;12.384;2023-04-24T04:26:46;98785.00;;;14.50
24639;BMP180;1641;51.306;12.384;2023-04-24T04:29:12;98810.00;;;14.30
24639;BMP180;1641;51.306;12.384;2023-04-24T04:31:37;98829.00;;;14.40
24639;BMP180;1641;51.306;12.384;2023-04-24T04:34:03;98865.00;;;14.30
24639;BMP180;1641;51.306;12.384;2023-04-24T04:36:28;98833.00;;;14.20
24639;BMP180;1641;51.306;12.384;2023-04-24T04:38:54;98861.00;;;14.30
24639;BMP180;1641;51.306;12.384;2023-04-24T04:41:19;98857.00;;;14.40
24639;BMP180;1641;51.306;12.384;2023-04-24T04:43:45;98858.00;;;14.40
24639;BMP180;1641;51.306;12.384;2023-04-24T04:46:11;98818.00;;;14.70
24639;BMP180;1641;51.306;12.384;2023-04-24T04:48:36;98850.00;;;14.40
24639;BMP180;1641;51.306;12.384;2023-04-24T04:51:02;98854.00;;;14.80
24639;BMP180;1641;51.306;12.384;2023-04-24T04:53:27;98854.00;;;14.80
24639;BMP180;1641;51.306;12.384;2023-04-24T04:55:53;98861.00;;;14.60
24639;BMP180;1641;51.306;12.384;2023-04-24T04:58:18;98859.00;;;14.70
24639;BMP180;1641;51.306;12.384;2023-04-24T05:00:43;98859.00;;;14.80
24639;BMP180;1641;51.306;12.384;2023-04-24T05:03:09;98852.00;;;14.90
24639;BMP180;1641;51.306;12.384;2023-04-24T05:05:34;98830.00;;;14.80
24639;BMP180;1641;51.306;12.384;2023-04-24T05:07:59;98866.00;;;14.60
24639;BMP180;1641;51.306;12.384;2023-04-24T05:10:25;98850.00;;;14.70
24639;BMP180;1641;51.306;12.384;2023-04-24T05:12:50;98853.00;;;14.70
24639;BMP180;1641;51.306;12.384;2023-04-24T05:15:15;98864.00;;;15.00
24639;BMP180;1641;51.306;12.384;2023-04-24T05:17:40;98864.00;;;15.00
24639;BMP180;1641;51.306;12.384;2023-04-24T05:20:06;98864.00;;;15.00
24639;BMP180;1641;51.306;12.384;2023-04-24T05:22:32;98870.00;;;15.10
24639;BMP180;1641;51.306;12.384;2023-04-24T05:24:57;98868.00;;;14.90
24639;BMP180;1641;51.306;12.384;2023-04-24T05:27:23;98852.00;;;14.90
24639;BMP180;1641;51.306;12.384;2023-04-24T05:29:49;98878.00;;;15.00
24639;BMP180;1641;51.306;12.384;2023-04-24T05:32:14;98865.00;;;15.20
24639;BMP180;1641;51.306;12.384;2023-04-24T05:34:40;98845.00;;;15.30
24639;BMP180;1641;51.306;12.384;2023-04-24T05:37:05;98873.00;;;15.30
24639;BMP180;1641;51.306;12.384;2023-04-24T05:39:33;98867.00;;;15.60
24639;BMP180;1641;51.306;12.384;2023-04-24T05:41:58;98858.00;;;15.50
24639;BMP180;1641;51.306;12.384;2023-04-24T05:44:24;98874.00;;;15.70
24639;BMP180;1641;51.306;12.384;2023-04-24T05:46:49;98880.00;;;15.80
24639;BMP180;1641;51.306;12.384;2023-04-24T05:49:18;98864.00;;;15.60
24639;BMP180;1641;51.306;12.384;2023-04-24T05:51:43;98884.00;;;15.70
24639;BMP180;1641;51.306;12.384;2023-04-24T05:54:14;98883.00;;;15.80
24639;BMP180;1641;51.306;12.384;2023-04-24T05:56:40;98851.00;;;15.70
24639;BMP180;1641;51.306;12.384;2023-04-24T05:59:05;98893.00;;;16.40
24639;BMP180;1641;51.306;12.384;2023-04-24T06:01:34;98871.00;;;16.50
24639;BMP180;1641;51.306;12.384;2023-04-24T06:04:05;98848.00;;;16.60
24639;BMP180;1641;51.306;12.384;2023-04-24T06:06:31;98898.00;;;16.30
24639;BMP180;1641;51.306;12.384;2023-04-24T06:09:03;98892.00;;;16.60
24639;BMP180;1641;51.306;12.384;2023-04-24T06:11:32;98872.00;;;16.70
24639;BMP180;1641;51.306;12.384;2023-04-24T06:13:58;98892.00;;;17.00
24639;BMP180;1641;51.306;12.384;2023-04-24T06:16:35;98887.00;;;17.80
24639;BMP180;1641;51.306;12.384;2023-04-24T06:19:01;98888.00;;;17.40
24639;BMP180;1641;51.306;12.384;2023-04-24T06:21:29;98894.00;;;17.30
24639;BMP180;1641;51.306;12.384;2023-04-24T06:23:55;98897.00;;;16.60
24639;BMP180;1641;51.306;12.384;2023-04-24T06:26:21;98882.00;;;16.50
24639;BMP180;1641;51.306;12.384;2023-04-24T06:28:53;98898.00;;;16.20
24639;BMP180;1641;51.306;12.384;2023-04-24T06:31:19;98895.00;;;16.50
24639;BMP180;1641;51.306;12.384;2023-04-24T06:33:45;98899.00;;;16.20
24639;BMP180;1641;51.306;12.384;2023-04-24T06:36:10;98835.00;;;16.10
24639;BMP180;1641;51.306;12.384;2023-04-24T06:38:39;98907.00;;;16.10
24639;BMP180;1641;51.306;12.384;2023-04-24T06:41:04;98907.00;;;15.90
24639;BMP180;1641;51.306;12.384;2023-04-24T06:43:31;98905.00;;;16.10
24639;BMP180;1641;51.306;12.384;2023-04-24T06:46:03;98906.00;;;16.10
24639;BMP180;1641;51.306;12.384;2023-04-24T06:48:28;98846.00;;;16.00
24639;BMP180;1641;51.306;12.384;2023-04-24T06:50:54;98907.00;;;15.90
24639;BMP180;1641;51.306;12.384;2023-04-24T06:53:19;98903.00;;;16.10
24639;BMP180;1641;51.306;12.384;2023-04-24T06:55:44;98874.00;;;16.00
24639;BMP180;1641;51.306;12.384;2023-04-24T06:58:11;98898.00;;;16.20
24639;BMP180;1641;51.306;12.384;2023-04-24T07:00:39;98870.00;;;16.40
24639;BMP180;1641;51.306;12.384;2023-04-24T07:03:04;98891.00;;;16.50
24639;BMP180;1641;51.306;12.384;2023-04-24T07:05:31;98890.00;;;16.50
24639;BMP180;1641;51.306;12.384;2023-04-24T07:07:56;98891.00;;;16.20
24639;BMP180;1641;51.306;12.384;2023-04-24T07:10:23;98903.00;;;16.30
24639;BMP180;1641;51.306;12.384;2023-04-24T07:12:49;98858.00;;;16.20
24639;BMP180;1641;51.306;12.384;2023-04-24T07:15:14;98906.00;;;16.50
24639;BMP180;1641;51.306;12.384;2023-04-24T07:17:49;98908.00;;;16.70
24639;BMP180;1641;51.306;12.384;2023-04-24T07:20:17;98906.00;;;17.00
24639;BMP180;1641;51.306;12.384;2023-04-24T07:22:43;98891.00;;;17.60
24639;BMP180;1641;51.306;12.384;2023-04-24T07:25:08;98900.00;;;17.80
24639;BMP180;1641;51.306;12.384;2023-04-24T07:27:34;98899.00;;;17.90
24639;BMP180;1641;51.306;12.384;2023-04-24T07:30:01;98900.00;;;18.40
24639;BMP180;1641;51.306;12.384;2023-04-24T07:32:38;98892.00;;;18.00
24639;BMP180;1641;51.306;12.384;2023-04-24T07:35:04;98896.00;;;18.40
24639;BMP180;1641;51.306;12.384;2023-04-24T07:37:47;98894.00;;;19.20
24639;BMP180;1641;51.306;12.384;2023-04-24T07:40:13;98891.00;;;19.60
24639;BMP180;1641;51.306;12.384;2023-04-24T07:42:38;98900.00;;;18.60
24639;BMP180;1641;51.306;12.384;2023-04-24T07:45:07;98902.00;;;18.60
24639;BMP180;1641;51.306;12.384;2023-04-24T07:47:33;98903.00;;;18.60
24639;BMP180;1641;51.306;12.384;2023-04-24T07:49:59;98913.00;;;18.50
24639;BMP180;1641;51.306;12.384;2023-04-24T07:52:24;98894.00;;;18.10
24639;BMP180;1641;51.306;12.384;2023-04-24T07:54:50;98905.00;;;18.50
24639;BMP180;1641;51.306;12.384;2023-04-24T07:57:16;98881.00;;;18.90
24639;BMP180;1641;51.306;12.384;2023-04-24T07:59:41;98897.00;;;19.40
24639;BMP180;1641;51.306;12.384;2023-04-24T08:02:32;98907.00;;;21.30
24639;BMP180;1641;51.306;12.384;2023-04-24T08:04:57;98899.00;;;21.80
24639;BMP180;1641;51.306;12.384;2023-04-24T08:07:34;98861.00;;;22.50
24639;BMP180;1641;51.306;12.384;2023-04-24T08:10:16;98885.00;;;22.40
24639;BMP180;1641;51.306;12.384;2023-04-24T08:12:42;98909.00;;;22.00
24639;BMP180;1641;51.306;12.384;2023-04-24T08:15:08;98913.00;;;22.90
24639;BMP180;1641;51.306;12.384;2023-04-24T08:17:45;98920.00;;;23.40
24639;BMP180;1641;51.306;12.384;2023-04-24T08:20:29;98908.00;;;22.40
24639;BMP180;1641;51.306;12.384;2023-04-24T08:22:55;98912.00;;;23.20
24639;BMP180;1641;51.306;12.384;2023-04-24T08:25:21;98921.00;;;24.10
24639;BMP180;1641;51.306;12.384;2023-04-24T08:27:51;98916.00;;;23.90
24639;BMP180;1641;51.306;12.384;2023-04-24T08:30:17;98920.00;;;23.70
24639;BMP180;1641;51.306;12.384;2023-04-24T08:32:43;98911.00;;;23.40
24639;BMP180;1641;51.306;12.384;2023-04-24T08:35:08;98923.00;;;22.10
24639;BMP180;1641;51.306;12.384;2023-04-24T08:37:37;98921.00;;;21.50
24639;BMP180;1641;51.306;12.384;2023-04-24T08:40:06;98905.00;;;21.00
24639;BMP180;1641;51.306;12.384;2023-04-24T08:42:46;98935.00;;;20.60
24639;BMP180;1641;51.306;12.384;2023-04-24T08:45:21;98929.00;;;20.20
24639;BMP180;1641;51.306;12.384;2023-04-24T08:47:47;98939.00;;;20.00
24639;BMP180;1641;51.306;12.384;2023-04-24T08:50:12;98947.00;;;19.20
24639;BMP180;1641;51.306;12.384;2023-04-24T08:52:38;98932.00;;;19.60
24639;BMP180;1641;51.306;12.384;2023-04-24T08:55:04;98936.00;;;19.70
24639;BMP180;1641;51.306;12.384;2023-04-24T08:57:39;98942.00;;;19.30
24639;BMP180;1641;51.306;12.384;2023-04-24T09:00:14;98929.00;;;18.60
24639;BMP180;1641;51.306;12.384;2023-04-24T09:02:43;98929.00;;;19.90
24639;BMP180;1641;51.306;12.384;2023-04-24T09:05:09;98940.00;;;21.90
24639;BMP180;1641;51.306;12.384;2023-04-24T09:07:44;98940.00;;;20.90
24639;BMP180;1641;51.306;12.384;2023-04-24T09:10:10;98929.00;;;20.40
24639;BMP180;1641;51.306;12.384;2023-04-24T09:12:36;98946.00;;;18.50
24639;BMP180;1641;51.306;12.384;2023-04-24T09:15:02;98931.00;;;19.30
24639;BMP180;1641;51.306;12.384;2023-04-24T09:17:40;98944.00;;;19.70
24639;BMP180;1641;51.306;12.384;2023-04-24T09:20:15;98917.00;;;19.70
24639;BMP180;1641;51.306;12.384;2023-04-24T09:22:44;98939.00;;;19.20
24639;BMP180;1641;51.306;12.384;2023-04-24T09:25:15;98910.00;;;18.80
24639;BMP180;1641;51.306;12.384;2023-04-24T09:27:53;98906.00;;;18.40
24639;BMP180;1641;51.306;12.384;2023-04-24T09:30:21;98954.00;;;18.00
24639;BMP180;1641;51.306;12.384;2023-04-24T09:33:09;98904.00;;;17.20
24639;BMP180;1641;51.306;12.384;2023-04-24T09:35:35;98909.00;;;17.10
24639;BMP180;1641;51.306;12.384;2023-04-24T09:38:03;98968.00;;;17.50
24639;BMP180;1641;51.306;12.384;2023-04-24T09:40:34;98904.00;;;17.10
24639;BMP180;1641;51.306;12.384;2023-04-24T09:43:00;98940.00;;;17.50
24639;BMP180;1641;51.306;12.384;2023-04-24T09:45:38;98966.00;;;16.70
24639;BMP180;1641;51.306;12.384;2023-04-24T09:48:04;98940.00;;;16.00
24639;BMP180;1641;51.306;12.384;2023-04-24T09:50:31;98968.00;;;16.90
24639;BMP180;1641;51.306;12.384;2023-04-24T09:53:04;98964.00;;;17.20
24639;BMP180;1641;51.306;12.384;2023-04-24T09:55:32;98957.00;;;17.70
24639;BMP180;1641;51.306;12.384;2023-04-24T09:57:58;98964.00;;;17.60
24639;BMP180;1641;51.306;12.384;2023-04-24T10:00:29;98964.00;;;18.50
24639;BMP180;1641;51.306;12.384;2023-04-24T10:03:02;98958.00;;;18.20
24639;BMP180;1641;51.306;12.384;2023-04-24T10:05:37;98895.00;;;17.30
24639;BMP180;1641;51.306;12.384;2023-04-24T10:08:13;98959.00;;;17.10
24639;BMP180;1641;51.306;12.384;2023-04-24T10:10:45;98950.00;;;17.90
24639;BMP180;1641;51.306;12.384;2023-04-24T10:13:17;98896.00;;;19.10
24639;BMP180;1641;51.306;12.384;2023-04-24T10:15:46;98951.00;;;18.90
24639;BMP180;1641;51.306;12.384;2023-04-24T10:18:12;98946.00;;;18.70
24639;BMP180;1641;51.306;12.384;2023-04-24T10:20:44;98954.00;;;19.00
24639;BMP180;1641;51.306;12.384;2023-04-24T10:23:12;98958.00;;;18.80
24639;BMP180;1641;51.306;12.384;2023-04-24T10:25:37;98960.00;;;18.10
24639;BMP180;1641;51.306;12.384;2023-04-24T10:28:03;98961.00;;;18.10
24639;BMP180;1641;51.306;12.384;2023-04-24T10:30:35;98889.00;;;18.10
24639;BMP180;1641;51.306;12.384;2023-04-24T10:33:05;98945.00;;;18.80
24639;BMP180;1641;51.306;12.384;2023-04-24T10:35:41;98896.00;;;18.90
24639;BMP180;1641;51.306;12.384;2023-04-24T10:38:09;98929.00;;;19.50
24639;BMP180;1641;51.306;12.384;2023-04-24T10:40:36;98964.00;;;19.40
24639;BMP180;1641;51.306;12.384;2023-04-24T10:43:03;98937.00;;;19.00
24639;BMP180;1641;51.306;12.384;2023-04-24T10:45:31;98962.00;;;19.20
24639;BMP180;1641;51.306;12.384;2023-04-24T10:48:14;98970.00;;;19.70
24639;BMP180;1641;51.306;12.384;2023-04-24T10:50:53;98968.00;;;19.20
24639;BMP180;1641;51.306;12.384;2023-04-24T10:53:23;98974.00;;;18.50
24639;BMP180;1641;51.306;12.384;2023-04-24T10:55:57;98969.00;;;18.80
24639;BMP180;1641;51.306;12.384;2023-04-24T10:58:24;98975.00;;;18.90
24639;BMP180;1641;51.306;12.384;2023-04-24T11:01:01;98948.00;;;19.30
24639;BMP180;1641;51.306;12.384;2023-04-24T11:03:29;98984.00;;;19.60
24639;BMP180;1641;51.306;12.384;2023-04-24T11:06:03;98949.00;;;19.50
24639;BMP180;1641;51.306;12.384;2023-04-24T11:08:32;98979.00;;;19.80
24639;BMP180;1641;51.306;12.384;2023-04-24T11:11:15;98980.00;;;19.30
24639;BMP180;1641;51.306;12.384;2023-04-24T11:24:23;98987.00;;;18.60
24639;BMP180;1641;51.306;12.384;2023-04-24T11:32:28;98962.00;;;19.30
24639;BMP180;1641;51.306;12.384;2023-04-24T11:34:55;98956.00;;;19.10
24639;BMP180;1641;51.306;12.384;2023-04-24T11:37:22;99008.00;;;18.40
24639;BMP180;1641;51.306;12.384;2023-04-24T11:39:55;99016.00;;;18.30
24639;BMP180;1641;51.306;12.384;2023-04-24T11:42:24;99006.00;;;18.40
24639;BMP180;1641;51.306;12.384;2023-04-24T11:44:56;99010.00;;;18.60
24639;BMP180;1641;51.306;12.384;2023-04-24T11:47:29;99010.00;;;18.20
24639;BMP180;1641;51.306;12.384;2023-04-24T11:50:15;99023.00;;;18.70
24639;BMP180;1641;51.306;12.384;2023-04-24T11:52:42;98980.00;;;17.70
24639;BMP180;1641;51.306;12.384;2023-04-24T11:57:48;99014.00;;;18.90
24639;BMP180;1641;51.306;12.384;2023-04-24T12:00:42;99014.00;;;19.60
24639;BMP180;1641;51.306;12.384;2023-04-24T12:03:13;98956.00;;;20.00
24639;BMP180;1641;51.306;12.384;2023-04-24T12:05:39;98983.00;;;19.80
24639;BMP180;1641;51.306;12.384;2023-04-24T12:08:05;99013.00;;;20.00
24639;BMP180;1641;51.306;12.384;2023-04-24T12:10:35;99011.00;;;19.40
24639;BMP180;1641;51.306;12.384;2023-04-24T12:13:03;98998.00;;;18.60
24639;BMP180;1641;51.306;12.384;2023-04-24T12:15:29;98985.00;;;19.00
24639;BMP180;1641;51.306;12.384;2023-04-24T12:18:13;99012.00;;;19.40
24639;BMP180;1641;51.306;12.384;2023-04-24T12:20:40;99024.00;;;19.20
24639;BMP180;1641;51.306;12.384;2023-04-24T12:23:05;99019.00;;;19.30
24639;BMP180;1641;51.306;12.384;2023-04-24T12:25:32;99029.00;;;18.70
24639;BMP180;1641;51.306;12.384;2023-04-24T12:30:50;99018.00;;;18.10
24639;BMP180;1641;51.306;12.384;2023-04-24T12:33:20;99006.00;;;18.40
24639;BMP180;1641;51.306;12.384;2023-04-24T12:35:46;99022.00;;;18.40
24639;BMP180;1641;51.306;12.384;2023-04-24T12:38:13;99011.00;;;18.60
24639;BMP180;1641;51.306;12.384;2023-04-24T12:40:39;99016.00;;;18.60
24639;BMP180;1641;51.306;12.384;2023-04-24T12:43:17;99014.00;;;18.50
24639;BMP180;1641;51.306;12.384;2023-04-24T12:45:42;99023.00;;;18.70
24639;BMP180;1641;51.306;12.384;2023-04-24T12:48:09;99013.00;;;19.10
24639;BMP180;1641;51.306;12.384;2023-04-24T12:50:34;99014.00;;;19.20
24639;BMP180;1641;51.306;12.384;2023-04-24T12:53:07;99001.00;;;19.30
24639;BMP180;1641;51.306;12.384;2023-04-24T12:55:33;99012.00;;;19.10
24639;BMP180;1641;51.306;12.384;2023-04-24T12:57:59;99012.00;;;18.80
24639;BMP180;1641;51.306;12.384;2023-04-24T13:00:24;98979.00;;;18.60
24639;BMP180;1641;51.306;12.384;2023-04-24T13:02:50;99014.00;;;18.70
24639;BMP180;1641;51.306;12.384;2023-04-24T13:05:15;99012.00;;;18.60
24639;BMP180;1641;51.306;12.384;2023-04-24T13:07:40;99017.00;;;18.70
24639;BMP180;1641;51.306;12.384;2023-04-24T13:10:06;99004.00;;;18.60
24639;BMP180;1641;51.306;12.384;2023-04-24T13:12:32;99013.00;;;18.40
24639;BMP180;1641;51.306;12.384;2023-04-24T13:14:58;98982.00;;;17.80
24639;BMP180;1641;51.306;12.384;2023-04-24T13:17:23;98993.00;;;18.20
24639;BMP180;1641;51.306;12.384;2023-04-24T13:19:50;98992.00;;;18.50
24639;BMP180;1641;51.306;12.384;2023-04-24T13:22:16;98994.00;;;18.80
24639;BMP180;1641;51.306;12.384;2023-04-24T13:24:42;98994.00;;;19.30
24639;BMP180;1641;51.306;12.384;2023-04-24T13:27:08;98979.00;;;18.90
24639;BMP180;1641;51.306;12.384;2023-04-24T13:29:34;98980.00;;;18.90
24639;BMP180;1641;51.306;12.384;2023-04-24T13:31:59;98993.00;;;18.90
24639;BMP180;1641;51.306;12.384;2023-04-24T13:34:25;98972.00;;;19.10
24639;BMP180;1641;51.306;12.384;2023-04-24T13:36:53;98978.00;;;19.40
24639;BMP180;1641;51.306;12.384;2023-04-24T13:39:18;98971.00;;;19.80
24639;BMP180;1641;51.306;12.384;2023-04-24T13:41:43;98977.00;;;19.90
24639;BMP180;1641;51.306;12.384;2023-04-24T13:44:09;98978.00;;;19.70
24639;BMP180;1641;51.306;12.384;2023-04-24T13:46:35;98971.00;;;19.80
24639;BMP180;1641;51.306;12.384;2023-04-24T13:49:02;98980.00;;;19.90
24639;BMP180;1641;51.306;12.384;2023-04-24T13:51:29;98979.00;;;18.70
24639;BMP180;1641;51.306;12.384;2023-04-24T13:53:55;99003.00;;;18.40
24639;BMP180;1641;51.306;12.384;2023-04-24T13:56:20;99001.00;;;18.20
24639;BMP180;1641;51.306;12.384;2023-04-24T13:58:47;98996.00;;;18.70
24639;BMP180;1641;51.306;12.384;2023-04-24T14:01:12;98959.00;;;18.30
24639;BMP180;1641;51.306;12.384;2023-04-24T14:03:38;98969.00;;;18.20
24639;BMP180;1641;51.306;12.384;2023-04-24T14:06:03;99008.00;;;18.10
24639;BMP180;1641;51.306;12.384;2023-04-24T14:08:29;99002.00;;;18.20
24639;BMP180;1641;51.306;12.384;2023-04-24T14:10:54;98993.00;;;18.20
24639;BMP180;1641;51.306;12.384;2023-04-24T14:13:21;98978.00;;;18.60
24639;BMP180;1641;51.306;12.384;2023-04-24T14:15:46;98998.00;;;17.90
24639;BMP180;1641;51.306;12.384;2023-04-24T14:18:18;98985.00;;;18.60
24639;BMP180;1641;51.306;12.384;2023-04-24T14:20:44;98998.00;;;18.50
24639;BMP180;1641;51.306;12.384;2023-04-24T14:23:09;99011.00;;;18.30
24639;BMP180;1641;51.306;12.384;2023-04-24T14:25:34;99015.00;;;18.10
24639;BMP180;1641;51.306;12.384;2023-04-24T14:28:00;99012.00;;;18.30
24639;BMP180;1641;51.306;12.384;2023-04-24T14:30:25;98948.00;;;18.10
24639;BMP180;1641;51.306;12.384;2023-04-24T14:32:50;99019.00;;;18.10